MiSS Krissy — WDC8127 — position and weather

sailwx.info

Track history (hours):
 
Tides and Currents Weather Stations Pressure Air Temp Water Temp Dewpoint Dewpoint Depression Visibility Wind Speed Wind Dir Waves Ship Positions

MiSS Krissy

Owner: Misener Marine Construction Inc., Tampa, FL. More information available from US FCC via Universal Licensing System and Coast Guard Vessel Documentation Center.

Last reported at 2018-Apr-25 12:03 UTC. Time now 2018-Apr-26 05:49 UTC.
Position N 27°56' W 082°27'.

Length 14 m.

Type: Tug. MMSI: 367082050.

Date/timePositionNaut miles runAvg speedWind from/ knotsBaromVisibWave heightAir tempDewpointWater temp
2018-Apr-25 12:03N 27°56' W 082°27'0 0.1
2018-Apr-25 12:00N 27°56' W 082°27'0 0.0
2018-Apr-24 17:03N 27°56' W 082°27'0 0.1
2018-Apr-24 17:00N 27°56' W 082°27'2 4.9
2018-Apr-24 16:30N 27°54' W 082°26'3 5.7
2018-Apr-24 15:59N 27°51' W 082°27'2 4.4
2018-Apr-24 15:30N 27°49' W 082°26'1 0.9
2018-Apr-24 14:19N 27°48' W 082°25'0 0.5
2018-Apr-24 13:49N 27°48' W 082°25'0 0.7
2018-Apr-24 13:17N 27°48' W 082°25'0 0.9
2018-Apr-24 13:01N 27°48' W 082°25'0 0.0
2018-Apr-24 12:30N 27°48' W 082°25'  
2018-Apr-20 14:24N 27°53' W 082°32'0 0.2
2018-Apr-20 14:00N 27°53' W 082°32'0 0.1
2018-Apr-20 12:25N 27°53' W 082°32'0 0.3
2018-Apr-20 11:58N 27°53' W 082°32'0 0.1
2018-Apr-20 11:28N 27°53' W 082°32'0 0.0
2018-Apr-19 12:36N 27°53' W 082°32'0 0.2
2018-Apr-19 12:30N 27°53' W 082°32'0 0.2
2018-Apr-19 12:00N 27°53' W 082°32'0 0.2
2018-Apr-19 11:30N 27°53' W 082°32'0 0.0
2018-Apr-18 15:54N 27°53' W 082°32'0 0.2
2018-Apr-18 15:28N 27°53' W 082°32'0 0.1
2018-Apr-18 14:58N 27°53' W 082°32'0 0.0
2018-Apr-18 14:31N 27°53' W 082°32'0 0.3
2018-Apr-18 14:00N 27°53' W 082°32'0 0.3
2018-Apr-18 13:30N 27°53' W 082°32'0 0.0
2018-Apr-18 13:00N 27°53' W 082°32'0 0.0
2018-Apr-17 15:27N 27°53' W 082°32'0 0.2
2018-Apr-17 14:52N 27°53' W 082°32'0 0.1
2018-Apr-17 14:30N 27°53' W 082°32'0 0.0
2018-Apr-16 14:11N 27°53' W 082°32'0 0.4
2018-Apr-16 13:56N 27°53' W 082°32'0 0.0
2018-Apr-16 13:30N 27°53' W 082°32'0 0.0
2018-Apr-16 12:57N 27°53' W 082°32'0 0.0
2018-Apr-16 12:28N 27°53' W 082°32'0 0.1
2018-Apr-16 12:00N 27°53' W 082°32'  
Track history (hours):
 
Tides and Currents Weather Stations Pressure Air Temp Water Temp Dewpoint Dewpoint Depression Visibility Wind Speed Wind Dir Waves Ship Positions

MiSS Krissy

Owner: Misener Marine Construction Inc., Tampa, FL. More information available from US FCC via Universal Licensing System and Coast Guard Vessel Documentation Center.

Last reported at 2018-Apr-25 12:03 UTC. Time now 2018-Apr-26 05:49 UTC.
Position N 27°56' W 082°27'.

Length 14 m.

Type: Tug. MMSI: 367082050.

Date/timePositionNaut miles runAvg speedWind from/ knotsBaromVisibWave heightAir tempDewpointWater temp
2018-Apr-25 12:03N 27°56' W 082°27'0 0.1
2018-Apr-25 12:00N 27°56' W 082°27'0 0.0
2018-Apr-24 17:03N 27°56' W 082°27'0 0.1
2018-Apr-24 17:00N 27°56' W 082°27'2 4.9
2018-Apr-24 16:30N 27°54' W 082°26'3 5.7
2018-Apr-24 15:59N 27°51' W 082°27'2 4.4
2018-Apr-24 15:30N 27°49' W 082°26'1 0.9
2018-Apr-24 14:19N 27°48' W 082°25'0 0.5
2018-Apr-24 13:49N 27°48' W 082°25'0 0.7
2018-Apr-24 13:17N 27°48' W 082°25'0 0.9
2018-Apr-24 13:01N 27°48' W 082°25'0 0.0
2018-Apr-24 12:30N 27°48' W 082°25'  
2018-Apr-20 14:24N 27°53' W 082°32'0 0.2
2018-Apr-20 14:00N 27°53' W 082°32'0 0.1
2018-Apr-20 12:25N 27°53' W 082°32'0 0.3
2018-Apr-20 11:58N 27°53' W 082°32'0 0.1
2018-Apr-20 11:28N 27°53' W 082°32'0 0.0
2018-Apr-19 12:36N 27°53' W 082°32'0 0.2
2018-Apr-19 12:30N 27°53' W 082°32'0 0.2
2018-Apr-19 12:00N 27°53' W 082°32'0 0.2
2018-Apr-19 11:30N 27°53' W 082°32'0 0.0
2018-Apr-18 15:54N 27°53' W 082°32'0 0.2
2018-Apr-18 15:28N 27°53' W 082°32'0 0.1
2018-Apr-18 14:58N 27°53' W 082°32'0 0.0
2018-Apr-18 14:31N 27°53' W 082°32'0 0.3
2018-Apr-18 14:00N 27°53' W 082°32'0 0.3
2018-Apr-18 13:30N 27°53' W 082°32'0 0.0
2018-Apr-18 13:00N 27°53' W 082°32'0 0.0
2018-Apr-17 15:27N 27°53' W 082°32'0 0.2
2018-Apr-17 14:52N 27°53' W 082°32'0 0.1
2018-Apr-17 14:30N 27°53' W 082°32'0 0.0
2018-Apr-16 14:11N 27°53' W 082°32'0 0.4
2018-Apr-16 13:56N 27°53' W 082°32'0 0.0
2018-Apr-16 13:30N 27°53' W 082°32'0 0.0
2018-Apr-16 12:57N 27°53' W 082°32'0 0.0
2018-Apr-16 12:28N 27°53' W 082°32'0 0.1
2018-Apr-16 12:00N 27°53' W 082°32'  

Dump ship's entire track history